Time;durP1;ratioP1;P1;durP2;ratioP2;P2;SDS_P1;SDS_P2;PMS_P1;PMS_P2;Temp;Humidity;BMP_temperature;BMP_pressure;BME280_temperature;BME280_humidity;BME280_pressure;Samples;Min_cycle;Max_cycle;Signal;HPM_P1;HPM_P2
2022/06/16 00:01:53;;;;;;;2.10;1.58;;;18.20;51.80;;;;;;5080599;28;20112;-68
2022/06/16 00:04:19;;;;;;;2.65;1.83;;;18.10;51.60;;;;;;5068780;28;20025;-68
2022/06/16 00:06:45;;;;;;;2.00;1.70;;;18.10;51.70;;;;;;5070454;28;20583;-67
2022/06/16 00:09:11;;;;;;;3.33;1.80;;;18.10;51.80;;;;;;5088316;28;20095;-66
2022/06/16 00:11:36;;;;;;;3.90;2.10;;;18.10;51.80;;;;;;5089995;28;20170;-66
2022/06/16 00:14:02;;;;;;;3.65;1.80;;;18.00;51.80;;;;;;5092030;28;20103;-67
2022/06/16 00:16:28;;;;;;;3.63;1.83;;;18.10;51.80;;;;;;5094368;28;20116;-67
2022/06/16 00:18:54;;;;;;;3.72;1.92;;;18.10;51.90;;;;;;5093970;28;20027;-67
2022/06/16 00:21:20;;;;;;;7.53;4.13;;;18.10;51.90;;;;;;5094258;28;20552;-67
2022/06/16 00:23:45;;;;;;;5.57;3.75;;;17.90;52.30;;;;;;5094471;28;20141;-67
2022/06/16 00:26:13;;;;;;;3.90;2.50;;;17.70;53.00;;;;;;5094053;28;20074;-67
2022/06/16 00:28:40;;;;;;;3.80;2.65;;;17.70;53.00;;;;;;5093724;28;20107;-66
2022/06/16 00:31:07;;;;;;;3.05;1.88;;;17.80;52.90;;;;;;5094061;28;20027;-66
2022/06/16 00:33:33;;;;;;;2.80;1.73;;;17.80;52.90;;;;;;5093981;28;20020;-67
2022/06/16 00:35:58;;;;;;;3.78;1.77;;;17.80;52.70;;;;;;5104279;28;20046;-67
2022/06/16 00:38:24;;;;;;;2.78;1.77;;;17.80;52.60;;;;;;5103547;28;20031;-66
2022/06/16 00:40:51;;;;;;;2.13;1.80;;;17.80;52.60;;;;;;5099562;28;20112;-67
2022/06/16 00:43:16;;;;;;;3.55;2.20;;;17.80;52.60;;;;;;5098586;28;20035;-69
2022/06/16 00:46:01;;;;;;;2.88;2.08;;;17.70;52.90;;;;;;5096119;28;20032;-68
2022/06/16 00:48:55;;;;;;;2.65;1.80;;;17.70;52.90;;;;;;5093950;28;20016;-68
2022/06/16 00:51:29;;;;;;;2.75;1.95;;;17.70;53.00;;;;;;5085817;28;20074;-68
2022/06/16 00:54:00;;;;;;;2.35;1.70;;;17.60;52.90;;;;;;5092140;28;20040;-68
2022/06/16 00:56:25;;;;;;;2.10;1.90;;;17.60;52.90;;;;;;5092523;28;20165;-68
2022/06/16 00:58:57;;;;;;;2.78;1.77;;;17.50;52.90;;;;;;5092977;28;20107;-68
2022/06/16 01:01:24;;;;;;;2.88;1.73;;;17.50;53.00;;;;;;5093063;28;20020;-67
2022/06/16 01:06:35;;;;;;;2.70;1.88;;;17.40;53.00;;;;;;5093597;28;20043;-68
2022/06/16 01:09:07;;;;;;;3.08;1.95;;;17.40;53.20;;;;;;5093950;28;20020;-68
2022/06/16 01:14:59;;;;;;;1.92;1.67;;;17.30;53.50;;;;;;5103961;28;20098;-68
2022/06/16 01:18:13;;;;;;;2.38;2.00;;;17.30;53.50;;;;;;5097935;28;20024;-68
2022/06/16 01:21:05;;;;;;;3.53;2.17;;;17.20;53.60;;;;;;5076870;28;20043;-68
2022/06/16 01:23:52;;;;;;;2.78;2.33;;;17.10;54.00;;;;;;5092420;28;20030;-68
2022/06/16 01:26:47;;;;;;;3.63;2.10;;;17.00;54.20;;;;;;5091437;28;20038;-68
2022/06/16 01:29:40;;;;;;;4.00;2.00;;;16.90;54.30;;;;;;5091032;28;20088;-68
2022/06/16 01:32:40;;;;;;;2.88;2.03;;;16.80;54.50;;;;;;5091745;28;20103;-68
2022/06/16 01:35:10;;;;;;;2.78;2.30;;;16.80;54.60;;;;;;5092137;28;20562;-68
2022/06/16 01:37:56;;;;;;;2.78;2.10;;;16.80;54.80;;;;;;5092078;28;20020;-67
2022/06/16 01:40:45;;;;;;;3.35;1.92;;;16.80;54.80;;;;;;5091573;28;20032;-68
2022/06/16 01:43:17;;;;;;;2.72;2.00;;;16.70;54.80;;;;;;5091960;28;20031;-67
2022/06/16 01:45:49;;;;;;;2.90;2.28;;;16.70;54.80;;;;;;5091774;28;20024;-67
2022/06/16 01:48:16;;;;;;;3.53;2.10;;;16.70;54.90;;;;;;5091890;28;20033;-67
2022/06/16 01:50:49;;;;;;;2.55;1.80;;;16.70;55.00;;;;;;5091910;28;20020;-67
2022/06/16 01:53:32;;;;;;;3.63;2.13;;;16.70;55.10;;;;;;5091695;28;20028;-67
2022/06/16 01:56:02;;;;;;;;;;;16.60;55.10;;;;;;5092485;28;20473;-67
2022/06/16 01:58:33;;;;;;;4.30;2.42;;;16.60;55.20;;;;;;5091926;28;19912;-67
2022/06/16 02:01:03;;;;;;;3.83;1.90;;;16.50;55.50;;;;;;5092159;28;20016;-66
2022/06/16 02:03:33;;;;;;;5.95;4.13;;;16.40;55.40;;;;;;5091434;28;20508;-67
2022/06/16 02:06:23;;;;;;;4.13;2.75;;;16.50;55.60;;;;;;5091407;28;20390;-67
2022/06/16 02:08:53;;;;;;;3.05;2.50;;;16.40;55.60;;;;;;5091130;28;20016;-66
2022/06/16 02:11:31;;;;;;;2.90;2.17;;;16.40;55.70;;;;;;5090669;28;20020;-68
2022/06/16 02:14:21;;;;;;;4.00;2.30;;;16.40;55.80;;;;;;5090184;28;20020;-67
2022/06/16 02:16:48;;;;;;;3.03;2.22;;;16.30;55.90;;;;;;5091313;28;20032;-67
2022/06/16 02:19:17;;;;;;;3.72;2.10;;;16.30;55.90;;;;;;5090967;28;20095;-67
2022/06/16 02:21:46;;;;;;;3.08;2.40;;;16.20;56.00;;;;;;5091145;28;20034;-68
2022/06/16 02:24:14;;;;;;;3.25;2.20;;;16.20;56.30;;;;;;5090984;28;20371;-67
2022/06/16 02:26:40;;;;;;;4.55;2.55;;;16.20;56.30;;;;;;5090849;28;20072;-66
2022/06/16 02:29:29;;;;;;;3.75;2.33;;;16.10;56.50;;;;;;5091054;28;20101;-66
2022/06/16 02:32:16;;;;;;;3.47;2.28;;;16.10;56.70;;;;;;5091445;28;20028;-66
2022/06/16 02:35:06;;;;;;;4.22;2.30;;;16.00;56.70;;;;;;5091623;28;20100;-65
2022/06/16 02:38:07;;;;;;;4.22;2.80;;;15.90;57.00;;;;;;5091290;28;20020;-66
2022/06/16 02:40:54;;;;;;;3.50;2.43;;;15.80;57.40;;;;;;5090617;28;20058;-67
2022/06/16 02:43:53;;;;;;;3.40;2.40;;;15.80;57.50;;;;;;5090533;28;20050;-68
2022/06/16 02:46:43;;;;;;;3.33;2.33;;;15.80;57.40;;;;;;5090546;28;20028;-66
2022/06/16 02:49:36;;;;;;;4.05;2.60;;;15.80;57.40;;;;;;5091248;28;20051;-67
2022/06/16 02:52:38;;;;;;;3.65;2.47;;;15.80;57.40;;;;;;5091187;28;20435;-67
2022/06/16 02:55:27;;;;;;;3.92;2.40;;;15.80;57.40;;;;;;5088526;28;20552;-67
2022/06/16 02:57:56;;;;;;;2.17;1.98;;;15.80;57.40;;;;;;5082507;28;20044;-67
2022/06/16 03:00:33;;;;;;;3.85;2.85;;;15.80;57.40;;;;;;5090939;28;20085;-68
2022/06/16 03:03:14;;;;;;;3.95;2.58;;;15.70;57.80;;;;;;5090982;28;20466;-67
2022/06/16 03:05:39;;;;;;;4.80;2.60;;;15.50;58.30;;;;;;5090256;28;20024;-68
2022/06/16 03:08:05;;;;;;;3.30;2.60;;;15.40;58.80;;;;;;5090014;28;20455;-67
2022/06/16 03:13:15;;;;;;;4.45;2.60;;;15.20;59.10;;;;;;5090284;28;20036;-67
2022/06/16 03:15:40;;;;;;;3.30;2.50;;;15.20;59.10;;;;;;5089917;28;20024;-67
2022/06/16 03:18:06;;;;;;;3.72;2.63;;;15.30;59.00;;;;;;5089885;28;20386;-66
2022/06/16 03:20:32;;;;;;;2.42;2.20;;;15.40;58.80;;;;;;5089847;28;20483;-67
2022/06/16 03:22:58;;;;;;;4.05;2.42;;;15.40;58.60;;;;;;5089828;28;20024;-67
2022/06/16 03:25:24;;;;;;;3.35;2.30;;;15.40;58.40;;;;;;5089647;28;20035;-67
2022/06/16 03:27:50;;;;;;;3.03;2.55;;;15.40;58.30;;;;;;5089831;28;20023;-67
2022/06/16 03:30:15;;;;;;;2.72;2.13;;;15.40;58.30;;;;;;5089666;28;20032;-67
2022/06/16 03:32:41;;;;;;;3.47;2.70;;;15.50;58.20;;;;;;5090000;28;20482;-69
2022/06/16 03:35:07;;;;;;;3.05;2.20;;;15.40;58.40;;;;;;5090373;28;20024;-68
2022/06/16 03:37:33;;;;;;;4.03;2.33;;;15.40;58.50;;;;;;5089979;28;20028;-67
2022/06/16 03:39:59;;;;;;;3.30;2.25;;;15.40;58.50;;;;;;5090026;28;20031;-67
2022/06/16 03:42:25;;;;;;;3.85;2.38;;;15.40;58.30;;;;;;5086905;28;20090;-68
2022/06/16 03:44:51;;;;;;;3.60;2.33;;;15.30;58.40;;;;;;5089262;28;20035;-67
2022/06/16 03:47:16;;;;;;;2.83;2.30;;;15.40;58.50;;;;;;5088236;28;20115;-69
2022/06/16 03:49:42;;;;;;;2.28;2.08;;;15.40;58.50;;;;;;5089894;28;20114;-68
2022/06/16 03:52:08;;;;;;;3.38;2.50;;;15.40;58.30;;;;;;5089066;28;20059;-67
2022/06/16 03:54:33;;;;;;;4.82;2.50;;;15.50;58.30;;;;;;5090037;28;20393;-67
2022/06/16 03:56:59;;;;;;;2.10;1.90;;;15.50;58.30;;;;;;5090373;28;20095;-68
2022/06/16 03:59:26;;;;;;;4.53;2.15;;;15.40;58.20;;;;;;5088749;28;20024;-68
2022/06/16 04:01:51;;;;;;;4.68;2.20;;;15.50;58.20;;;;;;5090114;28;20470;-67
2022/06/16 04:04:17;;;;;;;4.35;2.75;;;15.50;58.30;;;;;;5089833;28;20024;-69
2022/06/16 04:06:42;;;;;;;2.85;2.28;;;15.50;58.20;;;;;;5089161;28;20047;-68
2022/06/16 04:09:08;;;;;;;2.70;2.05;;;15.50;58.40;;;;;;5087779;28;20024;-68
2022/06/16 04:11:33;;;;;;;3.47;2.17;;;15.50;58.40;;;;;;5089379;28;20026;-68
2022/06/16 04:14:10;;;;;;;3.08;2.30;;;15.50;58.30;;;;;;5089187;28;20553;-68
2022/06/16 04:16:40;;;;;;;3.72;2.10;;;15.50;58.30;;;;;;5090109;28;20105;-67
2022/06/16 04:19:07;;;;;;;2.38;1.95;;;15.50;58.30;;;;;;5089754;28;20081;-68
2022/06/16 04:21:36;;;;;;;3.17;2.20;;;15.50;58.30;;;;;;5089888;28;20441;-67
2022/06/16 04:24:02;;;;;;;2.58;2.30;;;15.50;58.40;;;;;;5089947;28;20512;-68
2022/06/16 04:26:28;;;;;;;3.15;2.35;;;15.50;58.40;;;;;;5089768;28;20032;-68
2022/06/16 04:28:53;;;;;;;2.92;2.20;;;15.50;58.50;;;;;;5089892;28;20077;-68
2022/06/16 04:31:19;;;;;;;3.60;2.28;;;15.60;58.50;;;;;;5089209;28;20028;-67
2022/06/16 04:33:44;;;;;;;3.28;2.08;;;15.60;58.50;;;;;;5089295;28;20454;-67
2022/06/16 04:36:12;;;;;;;4.68;2.60;;;15.60;58.40;;;;;;5088741;28;20035;-67
2022/06/16 04:38:38;;;;;;;3.03;2.15;;;15.50;58.90;;;;;;5089042;28;20685;-68
2022/06/16 04:41:03;;;;;;;3.55;2.10;;;15.50;58.90;;;;;;5087567;28;20024;-67
2022/06/16 04:43:30;;;;;;;3.45;2.25;;;15.50;58.90;;;;;;5088983;28;20119;-67
2022/06/16 04:45:57;;;;;;;4.05;2.28;;;15.60;58.90;;;;;;5088782;28;20030;-67
2022/06/16 04:48:23;;;;;;;3.42;2.22;;;15.60;58.90;;;;;;5088837;28;20537;-67
2022/06/16 04:50:48;;;;;;;4.30;2.40;;;15.60;58.80;;;;;;5088904;28;20049;-67
2022/06/16 04:53:14;;;;;;;3.28;2.13;;;15.90;58.60;;;;;;5088863;28;20020;-67
2022/06/16 04:55:39;;;;;;;3.58;2.20;;;16.10;58.20;;;;;;5089071;28;20735;-67
2022/06/16 04:58:06;;;;;;;3.55;2.33;;;16.40;57.60;;;;;;5086421;28;20045;-67
2022/06/16 05:00:32;;;;;;;3.58;2.30;;;16.80;56.80;;;;;;5105553;28;20084;-68
2022/06/16 05:02:58;;;;;;;3.17;2.20;;;17.00;56.60;;;;;;5113032;28;20023;-67
2022/06/16 05:05:23;;;;;;;4.82;3.00;;;17.50;55.90;;;;;;5095190;28;20039;-68
2022/06/16 05:07:50;;;;;;;4.57;2.90;;;17.50;56.20;;;;;;5091738;28;20508;-67
2022/06/16 05:10:15;;;;;;;4.07;2.40;;;17.80;55.70;;;;;;5072204;28;20016;-67
2022/06/16 05:12:41;;;;;;;3.47;2.30;;;17.90;55.20;;;;;;5097581;28;20378;-67
2022/06/16 05:15:07;;;;;;;4.15;2.53;;;18.30;54.60;;;;;;5096722;28;20019;-67
2022/06/16 05:17:33;;;;;;;3.38;2.33;;;18.70;54.20;;;;;;5095057;28;20398;-67
2022/06/16 05:19:58;;;;;;;2.97;2.20;;;19.00;53.40;;;;;;5104460;28;20016;-67
2022/06/16 05:22:24;;;;;;;4.13;2.47;;;19.30;52.90;;;;;;5091795;28;20138;-68
2022/06/16 05:24:50;;;;;;;4.38;2.30;;;19.60;52.40;;;;;;5092666;28;20047;-67
2022/06/16 05:27:16;;;;;;;2.83;2.20;;;19.80;52.20;;;;;;5101835;28;20046;-67
2022/06/16 05:29:42;;;;;;;4.05;2.20;;;20.00;52.00;;;;;;5091237;28;20020;-67
2022/06/16 05:32:09;;;;;;;2.42;1.90;;;20.10;51.80;;;;;;5093793;28;20027;-67
2022/06/16 05:34:36;;;;;;;3.30;2.00;;;20.20;51.80;;;;;;5085296;28;20020;-68
2022/06/16 05:37:02;;;;;;;3.30;2.05;;;20.30;51.70;;;;;;5081815;28;20024;-68
2022/06/16 05:39:27;;;;;;;3.42;1.85;;;20.40;51.80;;;;;;5082854;28;20028;-68
2022/06/16 05:41:53;;;;;;;2.97;1.92;;;20.40;51.80;;;;;;5094294;28;20064;-68
2022/06/16 05:44:18;;;;;;;3.08;1.70;;;20.40;52.00;;;;;;5094015;28;20111;-67
2022/06/16 05:46:44;;;;;;;1.75;1.50;;;20.30;52.10;;;;;;5094283;28;20020;-68
2022/06/16 05:49:14;;;;;;;2.38;1.67;;;20.30;52.10;;;;;;5085069;28;20127;-68
2022/06/16 05:51:40;;;;;;;3.10;1.70;;;20.30;52.10;;;;;;5103576;28;20020;-68
2022/06/16 05:54:05;;;;;;;2.00;1.60;;;20.30;52.10;;;;;;5111146;28;20554;-68
2022/06/16 05:56:31;;;;;;;1.75;1.35;;;20.30;52.00;;;;;;5096339;28;20035;-68
2022/06/16 05:58:57;;;;;;;2.20;1.50;;;20.20;51.90;;;;;;5092432;28;20020;-68
2022/06/16 06:01:22;;;;;;;2.40;1.45;;;20.20;51.80;;;;;;5098617;28;20062;-68
2022/06/16 06:03:48;;;;;;;1.95;1.30;;;20.20;51.50;;;;;;5091489;28;20031;-68
2022/06/16 06:06:14;;;;;;;3.92;2.25;;;20.10;51.30;;;;;;5102043;28;20441;-68
2022/06/16 06:17:12;;;;;;;3.13;1.67;;;19.70;50.90;;;;;;5080586;28;20082;-68
2022/06/16 06:19:38;;;;;;;2.97;1.40;;;19.50;50.80;;;;;;5083124;28;20039;-67
2022/06/16 06:22:16;;;;;;;3.08;1.48;;;19.70;51.30;;;;;;5086248;28;20098;-68
2022/06/16 06:24:49;;;;;;;3.83;1.40;;;20.00;50.90;;;;;;5084019;28;20097;-68
2022/06/16 06:27:19;;;;;;;2.05;1.30;;;20.20;50.40;;;;;;5079439;28;20028;-68
2022/06/16 06:29:46;;;;;;;1.67;1.20;;;20.30;50.00;;;;;;5086528;28;20023;-69
2022/06/16 06:32:14;;;;;;;1.77;1.40;;;20.50;49.70;;;;;;5080454;28;20029;-68
2022/06/16 06:34:41;;;;;;;1.52;1.17;;;20.70;49.40;;;;;;5079093;28;20546;-69
2022/06/16 06:37:06;;;;;;;2.17;1.20;;;20.80;48.90;;;;;;5082555;28;20021;-69
2022/06/16 06:39:33;;;;;;;1.40;1.00;;;20.90;48.50;;;;;;5083729;28;20024;-69
2022/06/16 06:41:58;;;;;;;2.15;1.02;;;21.00;47.70;;;;;;5084512;28;20016;-68
2022/06/16 06:44:25;;;;;;;1.77;1.00;;;21.10;47.10;;;;;;5079339;28;20102;-68
2022/06/16 06:46:50;;;;;;;1.75;0.95;;;21.10;46.80;;;;;;5092185;28;20765;-68
2022/06/16 06:49:16;;;;;;;1.65;0.95;;;21.20;46.40;;;;;;5083455;28;20054;-69
2022/06/16 06:51:42;;;;;;;1.83;1.00;;;21.30;46.10;;;;;;5081949;28;20023;-68
2022/06/16 06:54:08;;;;;;;2.13;0.90;;;21.40;45.60;;;;;;5081057;28;20042;-68
2022/06/16 06:56:34;;;;;;;2.00;0.90;;;21.60;45.90;;;;;;5080703;28;20020;-67
2022/06/16 06:59:04;;;;;;;1.80;1.00;;;21.60;44.90;;;;;;5086881;28;20446;-69
2022/06/16 07:01:31;;;;;;;1.63;0.90;;;21.60;44.30;;;;;;5078180;28;20020;-68
2022/06/16 07:03:56;;;;;;;1.95;0.93;;;21.70;43.80;;;;;;5082433;28;20019;-69
2022/06/16 07:06:22;;;;;;;1.95;1.00;;;21.40;43.50;;;;;;5083538;28;20436;-69
2022/06/16 07:08:48;;;;;;;3.08;1.00;;;21.60;44.20;;;;;;5085992;28;20128;-69
2022/06/16 07:11:14;;;;;;;1.77;0.82;;;21.70;44.00;;;;;;5084807;28;20027;-69
2022/06/16 07:13:46;;;;;;;1.45;0.80;;;21.90;43.70;;;;;;5077346;28;20099;-69
2022/06/16 07:16:12;;;;;;;1.10;0.88;;;21.90;43.40;;;;;;5083336;28;20036;-68
2022/06/16 07:18:37;;;;;;;1.10;0.85;;;22.00;43.00;;;;;;5081759;28;20514;-68
2022/06/16 07:21:04;;;;;;;1.92;0.70;;;22.10;43.00;;;;;;5075930;28;20029;-69
2022/06/16 07:23:29;;;;;;;1.35;0.75;;;22.20;42.80;;;;;;5080179;28;20028;-69
2022/06/16 07:25:56;;;;;;;1.00;0.70;;;22.30;42.60;;;;;;5086094;28;20031;-68
2022/06/16 07:28:22;;;;;;;1.20;1.00;;;22.40;42.20;;;;;;5076316;28;20146;-69
2022/06/16 07:30:47;;;;;;;2.25;0.98;;;22.40;41.80;;;;;;5080388;28;20032;-67
2022/06/16 07:33:13;;;;;;;2.00;0.82;;;22.40;41.50;;;;;;5086887;28;20020;-68
2022/06/16 07:35:41;;;;;;;1.95;1.05;;;22.50;41.50;;;;;;5078978;28;20043;-68
2022/06/16 07:38:08;;;;;;;1.65;0.88;;;22.50;41.50;;;;;;5084727;28;20016;-68
2022/06/16 07:40:33;;;;;;;2.90;1.20;;;22.60;41.60;;;;;;5087585;28;20504;-68
2022/06/16 07:42:59;;;;;;;1.55;0.93;;;22.70;41.30;;;;;;5086588;28;20052;-67
2022/06/16 07:45:27;;;;;;;1.13;0.80;;;22.60;41.60;;;;;;5086620;28;20024;-68
2022/06/16 07:47:53;;;;;;;1.38;0.73;;;22.70;40.60;;;;;;5092581;28;20126;-68
2022/06/16 07:50:20;;;;;;;1.85;0.90;;;22.60;40.90;;;;;;5100024;28;20020;-68
2022/06/16 07:52:46;;;;;;;2.05;1.08;;;22.60;40.60;;;;;;5103879;28;20623;-68
2022/06/16 07:55:12;;;;;;;1.40;1.10;;;22.60;41.10;;;;;;5082123;28;20032;-68
2022/06/16 07:57:44;;;;;;;1.65;1.00;;;22.70;41.10;;;;;;5084212;28;20428;-68
2022/06/16 08:00:12;;;;;;;1.75;0.90;;;22.80;41.00;;;;;;5106890;28;20574;-68
2022/06/16 08:02:38;;;;;;;3.30;1.75;;;22.90;41.10;;;;;;5095876;28;20020;-68
2022/06/16 08:05:05;;;;;;;2.05;1.40;;;22.90;40.80;;;;;;5101067;28;20021;-67
2022/06/16 08:07:30;;;;;;;2.75;1.40;;;22.60;41.30;;;;;;5103290;28;20028;-68
2022/06/16 08:09:56;;;;;;;1.92;1.20;;;22.40;41.40;;;;;;5094025;28;20035;-68
2022/06/16 08:12:24;;;;;;;4.30;1.25;;;22.40;42.20;;;;;;5094688;28;20068;-68
2022/06/16 08:14:50;;;;;;;2.70;1.20;;;22.60;42.10;;;;;;5089094;28;20012;-69
2022/06/16 08:17:24;;;;;;;1.23;1.00;;;22.80;41.60;;;;;;5085289;28;20035;-68
2022/06/16 08:19:51;;;;;;;2.10;1.20;;;22.90;41.50;;;;;;5089248;28;20051;-68
2022/06/16 08:22:18;;;;;;;2.33;1.10;;;23.00;41.10;;;;;;5090702;28;20046;-68
2022/06/16 08:24:44;;;;;;;2.00;1.00;;;23.10;40.80;;;;;;5092545;28;20024;-68
2022/06/16 08:27:10;;;;;;;1.20;1.10;;;23.20;40.90;;;;;;5090727;28;20379;-67
2022/06/16 08:29:39;;;;;;;1.83;0.82;;;23.30;40.40;;;;;;5090625;28;20069;-67
2022/06/16 08:32:05;;;;;;;1.40;1.13;;;23.40;40.00;;;;;;5090547;28;20023;-67
2022/06/16 08:34:30;;;;;;;1.80;1.00;;;23.40;40.20;;;;;;5091633;28;20028;-68
2022/06/16 08:36:56;;;;;;;1.30;1.02;;;23.40;40.20;;;;;;5109338;28;20016;-68
2022/06/16 08:39:21;;;;;;;1.75;0.90;;;23.50;40.00;;;;;;5089620;28;20394;-67
2022/06/16 08:41:50;;;;;;;1.65;1.10;;;23.60;39.70;;;;;;5094802;28;20054;-68
2022/06/16 08:44:24;;;;;;;1.55;1.00;;;23.70;39.50;;;;;;5100621;28;20032;-69
2022/06/16 08:47:17;;;;;;;1.15;0.80;;;23.90;39.20;;;;;;5101376;28;20028;-69
2022/06/16 08:49:51;;;;;;;3.22;1.20;;;24.10;38.90;;;;;;5076806;28;20092;-69
2022/06/16 08:52:28;;;;;;;2.65;1.10;;;24.10;38.70;;;;;;5097740;28;20031;-67
2022/06/16 08:55:04;;;;;;;1.02;0.90;;;24.00;38.60;;;;;;5079699;28;20012;-68
2022/06/16 08:57:59;;;;;;;1.90;1.17;;;24.10;38.60;;;;;;5104577;28;20569;-68
2022/06/16 09:00:38;;;;;;;2.80;1.35;;;24.10;38.30;;;;;;5109524;28;20469;-67
2022/06/16 09:03:10;;;;;;;1.40;1.20;;;23.90;37.20;;;;;;5082483;28;20501;-67
2022/06/16 09:05:59;;;;;;;1.60;1.05;;;23.50;38.20;;;;;;5104220;28;20559;-67
2022/06/16 09:09:04;;;;;;;1.10;1.00;;;23.50;38.70;;;;;;5109388;28;20044;-68
2022/06/16 09:11:37;;;;;;;1.67;0.93;;;23.80;38.80;;;;;;5089917;28;20028;-67
2022/06/16 09:14:20;;;;;;;1.80;1.00;;;24.00;38.50;;;;;;5100335;28;20421;-68
2022/06/16 09:16:59;;;;;;;2.30;1.38;;;24.20;38.40;;;;;;5108586;28;20446;-68
2022/06/16 09:19:53;;;;;;;12.25;1.60;;;24.10;37.80;;;;;;5099297;28;20030;-68
2022/06/16 09:22:42;;;;;;;1.75;1.25;;;23.80;38.20;;;;;;5097983;28;20024;-68
2022/06/16 09:25:29;;;;;;;2.45;1.50;;;23.80;38.70;;;;;;5083700;28;20020;-67
2022/06/16 09:28:20;;;;;;;3.58;1.75;;;23.80;38.20;;;;;;5088797;28;20089;-67
2022/06/16 09:30:48;;;;;;;2.58;1.40;;;23.60;38.60;;;;;;5087208;28;20608;-68
2022/06/16 09:33:23;;;;;;;3.38;1.40;;;23.60;39.00;;;;;;5089111;28;20030;-68
2022/06/16 09:36:08;;;;;;;1.42;1.20;;;23.50;39.20;;;;;;5093311;28;20024;-66
2022/06/16 09:39:17;;;;;;;1.50;1.25;;;23.70;39.20;;;;;;5092931;28;20028;-66
2022/06/16 09:44:50;;;;;;;2.47;1.20;;;24.20;39.00;;;;;;5103609;28;20055;-68
2022/06/16 09:47:22;;;;;;;2.97;1.25;;;24.40;39.00;;;;;;5098052;28;20020;-66
2022/06/16 09:49:53;;;;;;;2.25;1.15;;;24.50;38.90;;;;;;5107956;28;20023;-67
2022/06/16 09:52:35;;;;;;;1.58;1.30;;;24.70;39.60;;;;;;5097299;28;20027;-67
2022/06/16 09:55:08;;;;;;;3.00;1.30;;;24.80;38.60;;;;;;5080826;28;20027;-67
2022/06/16 09:57:42;;;;;;;3.00;1.70;;;24.80;38.50;;;;;;5103251;28;20032;-68
2022/06/16 10:00:16;;;;;;;2.60;1.30;;;24.70;38.10;;;;;;5105866;28;20019;-68
2022/06/16 10:02:51;;;;;;;4.45;1.65;;;24.80;38.60;;;;;;5095027;28;20690;-68
2022/06/16 10:05:35;;;;;;;1.55;1.27;;;24.80;38.10;;;;;;5091941;28;20386;-68
2022/06/16 10:08:07;;;;;;;2.95;1.40;;;24.80;38.40;;;;;;5104985;28;20028;-67
2022/06/16 10:11:13;;;;;;;2.53;1.25;;;24.90;38.30;;;;;;5093787;27;20020;-67
2022/06/16 10:13:53;;;;;;;3.63;1.63;;;25.00;38.40;;;;;;5078772;28;20505;-66
2022/06/16 10:16:26;;;;;;;3.70;1.50;;;25.20;38.30;;;;;;5094197;28;20024;-65
2022/06/16 10:18:52;;;;;;;1.90;1.30;;;25.40;38.20;;;;;;5092193;28;20052;-67
2022/06/16 10:21:18;;;;;;;1.77;1.30;;;25.50;37.90;;;;;;5098526;28;20193;-67
2022/06/16 10:23:51;;;;;;;2.67;1.23;;;25.60;38.10;;;;;;5094891;28;20045;-67
2022/06/16 10:26:18;;;;;;;1.73;1.13;;;25.80;38.00;;;;;;5091575;28;20024;-67
2022/06/16 10:29:06;;;;;;;2.88;1.35;;;25.90;37.60;;;;;;5108393;28;20051;-67
2022/06/16 10:31:43;;;;;;;2.00;1.50;;;25.70;37.60;;;;;;5098574;28;20053;-67
2022/06/16 10:34:30;;;;;;;2.40;1.40;;;25.70;37.80;;;;;;5105395;28;20016;-66
2022/06/16 10:37:15;;;;;;;2.95;1.40;;;25.60;37.60;;;;;;5078698;28;20034;-66
2022/06/16 10:39:54;;;;;;;3.22;1.60;;;25.50;37.80;;;;;;5098918;28;20028;-67
2022/06/16 10:42:26;;;;;;;2.10;1.30;;;25.40;37.70;;;;;;5098858;28;20543;-67
2022/06/16 10:45:05;;;;;;;3.90;1.50;;;25.50;37.70;;;;;;5102477;28;20034;-66
2022/06/16 10:47:47;;;;;;;3.20;1.60;;;25.60;37.50;;;;;;5111775;27;20415;-66
2022/06/16 10:50:38;;;;;;;2.92;1.30;;;25.50;37.60;;;;;;5096880;28;20027;-67
2022/06/16 10:53:15;;;;;;;2.33;1.63;;;25.40;37.40;;;;;;5082183;28;20046;-67
2022/06/16 10:55:45;;;;;;;4.28;1.77;;;25.20;37.70;;;;;;5098195;28;20034;-68
2022/06/16 10:58:25;;;;;;;2.33;1.48;;;25.00;37.80;;;;;;5085685;28;20055;-68
2022/06/16 11:01:16;;;;;;;3.45;1.52;;;25.10;38.10;;;;;;5087360;28;20024;-67
2022/06/16 11:03:45;;;;;;;2.28;1.35;;;25.00;38.00;;;;;;5080001;28;20122;-67
2022/06/16 11:06:17;;;;;;;2.13;1.52;;;25.10;38.40;;;;;;5079864;28;20402;-67
2022/06/16 11:08:47;;;;;;;3.08;1.40;;;25.30;38.00;;;;;;5080039;28;20013;-66
2022/06/16 11:11:17;;;;;;;2.88;1.20;;;25.50;38.00;;;;;;5079778;28;20074;-67
2022/06/16 11:13:52;;;;;;;3.00;1.70;;;25.70;37.90;;;;;;5091724;28;20021;-67
2022/06/16 11:16:32;;;;;;;2.08;1.35;;;25.70;37.50;;;;;;5090867;28;20113;-67
2022/06/16 11:19:00;;;;;;;1.95;1.33;;;25.90;37.50;;;;;;5084306;28;20024;-67
2022/06/16 11:21:32;;;;;;;2.42;1.40;;;26.10;37.00;;;;;;5083699;28;20047;-68
2022/06/16 11:24:02;;;;;;;;;;;26.20;37.00;;;;;;5083324;28;20028;-68
2022/06/16 11:26:36;;;;;;;2.60;1.45;;;26.40;36.90;;;;;;5080934;28;20003;-67
2022/06/16 11:29:32;;;;;;;2.78;1.40;;;26.60;36.50;;;;;;5079858;28;20019;-68
2022/06/16 11:32:04;;;;;;;3.63;1.70;;;26.60;35.90;;;;;;5088550;28;20099;-68
2022/06/16 11:34:29;;;;;;;2.67;1.23;;;26.30;36.10;;;;;;5083527;28;20028;-66
2022/06/16 11:37:20;;;;;;;2.92;1.50;;;26.20;36.90;;;;;;5087971;28;20021;-67
2022/06/16 11:40:07;;;;;;;2.28;1.50;;;26.50;37.00;;;;;;5084627;28;20035;-67
2022/06/16 11:42:44;;;;;;;3.88;1.42;;;26.50;36.60;;;;;;5080416;28;20089;-67
2022/06/16 11:45:21;;;;;;;1.88;1.20;;;27.00;36.50;;;;;;5089984;28;20039;-68
2022/06/16 11:48:24;;;;;;;2.45;1.20;;;27.40;36.00;;;;;;5090409;28;20396;-66
2022/06/16 11:50:58;;;;;;;2.65;1.60;;;27.70;35.70;;;;;;5089053;28;20555;-67
2022/06/16 11:53:27;;;;;;;2.17;1.48;;;27.30;34.60;;;;;;5089065;28;20051;-67
2022/06/16 11:56:03;;;;;;;2.10;1.50;;;26.90;35.50;;;;;;5090187;28;20027;-67
2022/06/16 11:58:52;;;;;;;1.75;1.30;;;26.60;35.70;;;;;;5090289;28;20085;-66
2022/06/16 12:01:27;;;;;;;2.70;1.60;;;26.40;36.00;;;;;;5090205;28;20444;-66
2022/06/16 12:04:13;;;;;;;2.95;1.45;;;26.40;36.70;;;;;;5090196;28;20048;-67
2022/06/16 12:07:16;;;;;;;1.73;1.30;;;26.60;36.60;;;;;;5089991;28;20020;-67
2022/06/16 12:09:41;;;;;;;1.95;1.27;;;26.90;36.50;;;;;;5088296;28;20054;-66
2022/06/16 12:12:11;;;;;;;1.65;1.10;;;27.20;35.60;;;;;;5089893;28;20494;-66
2022/06/16 12:14:44;;;;;;;2.15;1.23;;;27.50;35.30;;;;;;5090167;28;20024;-66
2022/06/16 12:17:28;;;;;;;2.33;1.20;;;27.60;34.80;;;;;;5089986;28;20028;-66
2022/06/16 12:20:13;;;;;;;1.60;1.20;;;27.70;34.80;;;;;;5090081;28;20487;-66
2022/06/16 12:22:45;;;;;;;1.45;1.08;;;27.80;34.70;;;;;;5089472;28;20443;-67
2022/06/16 12:25:31;;;;;;;2.60;1.25;;;28.00;34.80;;;;;;5089984;28;20016;-68
2022/06/16 12:28:16;;;;;;;1.58;1.20;;;28.30;34.80;;;;;;5089604;28;20059;-66
2022/06/16 12:30:55;;;;;;;3.67;1.33;;;28.50;34.50;;;;;;5088851;28;20035;-67
2022/06/16 12:33:33;;;;;;;1.55;1.10;;;28.60;33.90;;;;;;5088264;28;20067;-67
2022/06/16 12:36:08;;;;;;;2.75;1.80;;;28.60;33.90;;;;;;5089916;28;20390;-67
2022/06/16 12:38:37;;;;;;;1.98;1.40;;;28.00;33.90;;;;;;5080780;28;20703;-67
2022/06/16 12:41:08;;;;;;;2.15;1.50;;;27.80;34.50;;;;;;5080266;28;20020;-68
2022/06/16 12:43:39;;;;;;;1.75;1.30;;;27.80;34.80;;;;;;5078603;28;20032;-68
2022/06/16 12:46:08;;;;;;;1.90;1.30;;;27.70;35.00;;;;;;5074112;28;20032;-68
2022/06/16 12:48:53;;;;;;;2.70;1.42;;;27.80;35.10;;;;;;5082637;28;20495;-66
2022/06/16 12:51:22;;;;;;;2.72;1.60;;;28.10;34.90;;;;;;5078763;28;20016;-68
2022/06/16 12:54:08;;;;;;;1.65;1.40;;;28.10;34.60;;;;;;5080549;28;20039;-66
2022/06/16 12:56:55;;;;;;;2.00;1.10;;;28.30;34.70;;;;;;5091790;28;20027;-66
2022/06/16 12:59:27;;;;;;;1.45;1.20;;;28.60;34.40;;;;;;5092514;28;20028;-66
2022/06/16 13:01:57;;;;;;;2.95;1.25;;;29.00;34.00;;;;;;5091815;28;20077;-66
2022/06/16 13:04:28;;;;;;;2.65;1.35;;;29.40;33.90;;;;;;5084756;28;20024;-68
2022/06/16 13:06:56;;;;;;;2.15;1.40;;;29.50;33.30;;;;;;5083745;28;20030;-65
2022/06/16 13:09:23;;;;;;;3.33;1.60;;;29.30;33.30;;;;;;5081490;28;20051;-67
2022/06/16 13:11:57;;;;;;;1.38;1.20;;;29.20;33.60;;;;;;5084095;28;20021;-67
2022/06/16 13:14:26;;;;;;;2.28;1.50;;;29.10;33.70;;;;;;5078627;28;20031;-67
2022/06/16 13:16:53;;;;;;;1.48;1.15;;;28.40;33.50;;;;;;5084765;28;20063;-68
2022/06/16 13:19:25;;;;;;;3.13;1.40;;;28.40;34.00;;;;;;5073721;28;20382;-67
2022/06/16 13:21:57;;;;;;;1.65;1.25;;;28.80;34.00;;;;;;5085507;28;20027;-68
2022/06/16 13:24:38;;;;;;;2.22;1.10;;;28.90;34.30;;;;;;5081862;28;20020;-67
2022/06/16 13:27:24;;;;;;;1.55;1.10;;;28.90;33.60;;;;;;5083097;28;20046;-67
2022/06/16 13:29:49;;;;;;;2.38;1.20;;;29.00;33.70;;;;;;5092585;28;20397;-67
2022/06/16 13:32:39;;;;;;;2.67;1.42;;;28.80;34.00;;;;;;5083272;28;20028;-68
2022/06/16 13:35:14;;;;;;;2.05;1.48;;;28.60;33.90;;;;;;5090369;28;20024;-69
2022/06/16 13:37:42;;;;;;;1.80;1.27;;;28.20;34.00;;;;;;5083299;28;20105;-68